Time;durP1;ratioP1;P1;durP2;ratioP2;P2;SDS_P1;SDS_P2;PMS_P1;PMS_P2;Temp;Humidity;BMP_temperature;BMP_pressure;BME280_temperature;BME280_humidity;BME280_pressure;Samples;Min_cycle;Max_cycle;Signal;HPM_P1;HPM_P2
2023/02/15 00:00:20;;;;;;;22.83;11.98;;;3.10;64.80;;;;;;5117586;27;20091;-76
2023/02/15 00:02:46;;;;;;;20.10;11.15;;;3.10;64.80;;;;;;5117946;27;20079;-76
2023/02/15 00:05:11;;;;;;;17.23;10.52;;;3.00;64.90;;;;;;5118055;27;20428;-75
2023/02/15 00:07:37;;;;;;;18.83;10.40;;;3.00;64.80;;;;;;5117610;27;20015;-75
2023/02/15 00:10:04;;;;;;;15.35;9.23;;;3.00;64.40;;;;;;5117757;27;20039;-76
2023/02/15 00:12:29;;;;;;;16.90;9.70;;;3.00;63.50;;;;;;5117366;27;20019;-76
2023/02/15 00:14:55;;;;;;;16.52;9.02;;;3.00;63.50;;;;;;5117520;27;20076;-75
2023/02/15 00:17:21;;;;;;;23.70;10.32;;;3.10;63.60;;;;;;5117642;27;20375;-75
2023/02/15 00:19:47;;;;;;;18.70;10.40;;;3.10;63.50;;;;;;5117306;27;20043;-75
2023/02/15 00:22:12;;;;;;;17.17;9.35;;;3.10;63.40;;;;;;5117095;27;20074;-75
2023/02/15 00:24:38;;;;;;;16.20;9.52;;;3.10;63.10;;;;;;5100068;27;20027;-75
2023/02/15 00:27:04;;;;;;;14.73;8.82;;;3.10;62.80;;;;;;5117324;27;20357;-75
2023/02/15 00:29:29;;;;;;;18.60;9.55;;;3.10;62.10;;;;;;5117297;27;20032;-75
2023/02/15 00:31:55;;;;;;;19.15;9.98;;;3.00;62.30;;;;;;5117422;27;20054;-75
2023/02/15 00:34:26;;;;;;;16.83;9.73;;;3.00;62.30;;;;;;5117141;27;20426;-76
2023/02/15 00:36:52;;;;;;;16.42;8.73;;;3.00;62.20;;;;;;5116916;27;20046;-76
2023/02/15 00:39:18;;;;;;;14.73;9.30;;;3.00;62.20;;;;;;5117125;27;20023;-75
2023/02/15 00:41:47;;;;;;;17.25;9.52;;;3.00;62.20;;;;;;5116501;27;20027;-76
2023/02/15 00:44:13;;;;;;;14.98;9.18;;;2.90;62.50;;;;;;5117052;27;20027;-77
2023/02/15 00:46:39;;;;;;;16.95;9.15;;;2.90;62.70;;;;;;5116817;27;20425;-76
2023/02/15 00:49:05;;;;;;;13.45;7.15;;;2.80;62.70;;;;;;5116675;27;20031;-76
2023/02/15 00:51:31;;;;;;;14.68;8.05;;;2.70;62.50;;;;;;5116473;27;20028;-75
2023/02/15 00:53:57;;;;;;;14.68;8.80;;;2.70;62.50;;;;;;5116726;27;20475;-76
2023/02/15 00:56:23;;;;;;;16.30;9.38;;;2.70;62.80;;;;;;5116651;27;20027;-76
2023/02/15 00:58:48;;;;;;;16.88;8.77;;;2.70;62.70;;;;;;5116431;27;20475;-75
2023/02/15 01:01:17;;;;;;;15.18;8.45;;;2.60;62.50;;;;;;5116412;27;20035;-75
2023/02/15 01:03:43;;;;;;;15.35;7.93;;;2.70;62.30;;;;;;5116078;27;20453;-76
2023/02/15 01:06:09;;;;;;;12.13;6.88;;;2.80;61.60;;;;;;5115902;27;20164;-75
2023/02/15 01:08:35;;;;;;;16.35;8.48;;;2.80;61.00;;;;;;5116095;27;20402;-76
2023/02/15 01:11:07;;;;;;;15.68;8.05;;;2.80;61.40;;;;;;5116216;27;20019;-75
2023/02/15 01:13:34;;;;;;;17.38;7.88;;;2.70;61.60;;;;;;5116367;27;20027;-75
2023/02/15 01:15:59;;;;;;;12.90;7.18;;;2.70;61.50;;;;;;5116111;27;20034;-76
2023/02/15 01:18:26;;;;;;;12.68;7.05;;;2.60;62.10;;;;;;5116255;27;20031;-77
2023/02/15 01:20:53;;;;;;;12.63;7.22;;;2.60;62.10;;;;;;5116003;27;20072;-76
2023/02/15 01:23:18;;;;;;;11.25;7.20;;;2.50;62.20;;;;;;5115929;27;20058;-77
2023/02/15 01:25:44;;;;;;;11.90;6.68;;;2.50;62.00;;;;;;5116233;27;20028;-77
2023/02/15 01:28:09;;;;;;;15.05;7.45;;;2.40;61.90;;;;;;5115341;27;20080;-76
2023/02/15 01:30:35;;;;;;;13.27;7.65;;;2.50;62.20;;;;;;5115927;27;20062;-76
2023/02/15 01:33:01;;;;;;;14.57;7.63;;;2.40;62.10;;;;;;5115825;27;20023;-79
2023/02/15 01:35:27;;;;;;;11.15;7.18;;;2.40;62.60;;;;;;5115544;27;20121;-76
2023/02/15 01:37:53;;;;;;;13.23;7.35;;;2.20;63.00;;;;;;5116033;27;20050;-75
2023/02/15 01:40:19;;;;;;;10.63;6.50;;;2.20;63.20;;;;;;5115709;27;20023;-75
2023/02/15 01:42:45;;;;;;;13.27;7.22;;;2.20;63.10;;;;;;5115205;27;20103;-75
2023/02/15 01:45:31;;;;;;;12.77;6.18;;;2.20;62.90;;;;;;5115723;27;20026;-75
2023/02/15 01:48:03;;;;;;;11.52;6.45;;;2.30;61.90;;;;;;5115442;27;20023;-76
2023/02/15 01:50:42;;;;;;;12.55;5.95;;;2.30;61.20;;;;;;5115836;27;20039;-75
2023/02/15 01:53:13;;;;;;;11.48;5.95;;;2.40;60.60;;;;;;5115781;27;20023;-76
2023/02/15 01:56:18;;;;;;;11.63;6.65;;;2.50;60.00;;;;;;5115626;28;20033;-75
2023/02/15 01:58:46;;;;;;;12.65;6.28;;;2.50;59.90;;;;;;5101522;28;20031;-76
2023/02/15 02:01:12;;;;;;;11.38;6.57;;;2.50;59.70;;;;;;5115357;28;20084;-75
2023/02/15 02:04:08;;;;;;;11.57;5.93;;;2.50;59.90;;;;;;5115972;28;20027;-75
2023/02/15 02:06:36;;;;;;;13.95;6.03;;;2.40;60.40;;;;;;5115509;28;20061;-75
2023/02/15 02:09:02;;;;;;;9.45;5.22;;;2.40;60.50;;;;;;5115748;28;20031;-75
2023/02/15 02:11:28;;;;;;;11.93;6.15;;;2.40;60.50;;;;;;5115738;28;20072;-76
2023/02/15 02:13:55;;;;;;;9.00;5.63;;;2.30;60.40;;;;;;5115656;28;20096;-75
2023/02/15 02:16:28;;;;;;;11.23;5.90;;;2.20;60.40;;;;;;5115414;28;20110;-75
2023/02/15 02:19:12;;;;;;;8.70;5.20;;;2.10;60.70;;;;;;5115733;28;20523;-75
2023/02/15 02:21:59;;;;;;;9.05;5.05;;;2.10;60.70;;;;;;5115622;28;20060;-75
2023/02/15 02:25:03;;;;;;;8.25;4.70;;;2.10;59.80;;;;;;5115565;28;20027;-75
2023/02/15 02:27:41;;;;;;;7.50;4.10;;;2.20;59.00;;;;;;5115522;28;20035;-75
2023/02/15 02:30:19;;;;;;;8.52;4.68;;;2.30;58.40;;;;;;5115426;28;20109;-75
2023/02/15 02:33:03;;;;;;;8.55;4.22;;;2.30;57.60;;;;;;5115810;28;20024;-75
2023/02/15 02:35:41;;;;;;;8.13;4.90;;;2.40;58.00;;;;;;5115141;28;20074;-75
2023/02/15 02:38:23;;;;;;;9.23;4.88;;;2.30;58.10;;;;;;5115726;28;20104;-76
2023/02/15 02:41:11;;;;;;;9.93;4.90;;;2.40;58.00;;;;;;5115303;28;20019;-75
2023/02/15 02:44:07;;;;;;;11.00;4.45;;;2.40;57.50;;;;;;5115300;28;20023;-76
2023/02/15 02:46:35;;;;;;;;;;;2.40;57.10;;;;;;5115938;28;20019;-75
2023/02/15 02:49:03;;;;;;;8.80;4.15;;;2.40;56.90;;;;;;5115375;28;19980;-75
2023/02/15 02:51:29;;;;;;;8.15;4.43;;;2.40;56.60;;;;;;5114985;28;20146;-75
2023/02/15 02:53:58;;;;;;;6.57;3.95;;;2.40;56.60;;;;;;5115039;28;20383;-76
2023/02/15 02:56:33;;;;;;;8.93;4.40;;;2.40;56.50;;;;;;5114972;28;20027;-75
2023/02/15 02:59:19;;;;;;;;;;;2.40;56.30;;;;;;5115164;28;20522;-75
2023/02/15 03:01:55;;;;;;;9.70;3.70;;;2.40;55.90;;;;;;5114249;28;19907;-76
2023/02/15 03:04:27;;;;;;;8.38;3.40;;;2.50;55.40;;;;;;5115345;28;20076;-75
2023/02/15 03:07:01;;;;;;;7.25;3.58;;;2.50;55.00;;;;;;5133293;28;20451;-76
2023/02/15 03:09:43;;;;;;;6.15;3.05;;;2.50;55.00;;;;;;5114532;28;20031;-76
2023/02/15 03:12:24;;;;;;;6.70;3.10;;;2.50;54.70;;;;;;5114949;27;20027;-75
2023/02/15 03:15:03;;;;;;;5.20;3.15;;;2.50;54.40;;;;;;5117753;27;20043;-76
2023/02/15 03:17:33;;;;;;;4.20;2.92;;;2.50;54.20;;;;;;5101357;27;20051;-75
2023/02/15 03:20:06;;;;;;;5.13;2.88;;;2.60;54.60;;;;;;5118218;27;20095;-77
2023/02/15 03:22:37;;;;;;;6.15;3.35;;;2.60;53.50;;;;;;5118339;27;20023;-77
2023/02/15 03:25:10;;;;;;;4.18;2.67;;;2.70;53.30;;;;;;5118405;27;20020;-76
2023/02/15 03:27:44;;;;;;;8.15;2.60;;;2.60;53.30;;;;;;5118602;27;20029;-75
2023/02/15 03:30:12;;;;;;;6.43;3.25;;;2.70;53.10;;;;;;5118307;27;20049;-76
2023/02/15 03:32:39;;;;;;;3.92;2.70;;;2.60;53.10;;;;;;5118208;27;20459;-75
2023/02/15 03:35:05;;;;;;;6.18;3.45;;;2.60;53.20;;;;;;5118365;27;20084;-77
2023/02/15 03:37:52;;;;;;;6.55;3.65;;;2.60;53.90;;;;;;5118300;27;20043;-77
2023/02/15 03:43:30;;;;;;;5.53;3.58;;;2.40;55.40;;;;;;5136750;27;20027;-78
2023/02/15 03:46:06;;;;;;;7.78;4.35;;;2.30;56.50;;;;;;5118026;27;20019;-77
2023/02/15 03:48:38;;;;;;;7.80;4.80;;;2.20;57.50;;;;;;5117672;27;20047;-76
2023/02/15 03:53:55;;;;;;;8.18;4.18;;;2.00;58.90;;;;;;5136561;27;20042;-75
2023/02/15 03:56:21;;;;;;;4.47;3.00;;;2.00;58.60;;;;;;5117875;27;20042;-75
2023/02/15 04:01:58;;;;;;;6.45;2.90;;;2.10;55.10;;;;;;5136485;27;20050;-75
2023/02/15 04:04:40;;;;;;;5.60;2.83;;;2.20;54.20;;;;;;5117766;27;20054;-75
2023/02/15 04:07:08;;;;;;;5.88;2.70;;;2.40;53.80;;;;;;5117850;27;20433;-75
2023/02/15 04:12:18;;;;;;;5.00;2.92;;;2.50;53.50;;;;;;5136124;27;20030;-75
2023/02/15 04:17:28;;;;;;;6.13;3.15;;;2.50;53.10;;;;;;5135927;27;20037;-75
2023/02/15 04:25:21;;;;;;;9.52;3.30;;;2.50;52.90;;;;;;5135451;27;20443;-75
2023/02/15 04:27:49;;;;;;;5.85;3.35;;;2.50;52.70;;;;;;5117054;27;20058;-75
2023/02/15 04:30:18;;;;;;;7.25;3.72;;;2.60;52.40;;;;;;5116913;27;20063;-75
2023/02/15 04:32:44;;;;;;;4.75;3.17;;;2.60;52.50;;;;;;5116796;27;20024;-75
2023/02/15 04:35:11;;;;;;;6.72;2.95;;;2.60;52.40;;;;;;5116849;27;20023;-75
2023/02/15 04:37:37;;;;;;;5.85;3.30;;;2.50;52.40;;;;;;5117183;27;20110;-74
2023/02/15 04:40:04;;;;;;;6.28;2.97;;;2.60;52.20;;;;;;5116808;27;20043;-75
2023/02/15 04:42:30;;;;;;;6.05;3.05;;;2.60;51.80;;;;;;5116689;27;20080;-75
2023/02/15 04:44:55;;;;;;;5.00;3.22;;;2.60;51.70;;;;;;5116648;27;20471;-76
2023/02/15 04:47:21;;;;;;;7.00;3.75;;;2.60;51.80;;;;;;5117151;27;20035;-76
2023/02/15 04:49:46;;;;;;;8.65;3.28;;;2.60;52.50;;;;;;5116622;27;20027;-75
2023/02/15 04:52:12;;;;;;;9.23;5.70;;;2.40;53.80;;;;;;5116443;27;20110;-75
2023/02/15 04:54:38;;;;;;;11.98;6.57;;;2.20;57.10;;;;;;5116446;27;20027;-76
2023/02/15 04:57:04;;;;;;;10.88;6.45;;;2.20;57.50;;;;;;5116469;27;20057;-76
2023/02/15 04:59:30;;;;;;;12.15;6.30;;;2.00;59.60;;;;;;5116262;27;20023;-75
2023/02/15 05:01:55;;;;;;;12.80;7.55;;;1.80;60.50;;;;;;5116545;27;20034;-76
2023/02/15 05:04:21;;;;;;;11.05;6.32;;;1.80;60.90;;;;;;5116509;27;20114;-75
2023/02/15 05:06:46;;;;;;;9.60;5.78;;;1.80;61.00;;;;;;5116336;27;20109;-75
2023/02/15 05:09:12;;;;;;;9.60;5.80;;;1.90;60.90;;;;;;5116349;27;20225;-75
2023/02/15 05:11:38;;;;;;;10.85;5.88;;;2.00;60.70;;;;;;5116766;27;20366;-75
2023/02/15 05:14:04;;;;;;;11.43;6.15;;;2.00;60.30;;;;;;5099447;27;20031;-75
2023/02/15 05:16:30;;;;;;;9.30;5.57;;;2.00;60.40;;;;;;5116236;27;20019;-75
2023/02/15 05:18:55;;;;;;;10.48;6.22;;;1.90;60.40;;;;;;5116281;27;20019;-74
2023/02/15 05:21:21;;;;;;;9.50;5.88;;;2.00;60.20;;;;;;5116168;27;20061;-74
2023/02/15 05:23:48;;;;;;;9.18;4.80;;;2.00;60.00;;;;;;5116136;27;20076;-74
2023/02/15 05:29:03;;;;;;;8.65;4.40;;;1.90;57.00;;;;;;5134413;27;20115;-76
2023/02/15 05:31:29;;;;;;;7.00;3.90;;;1.90;58.00;;;;;;5116167;27;20451;-74
2023/02/15 05:33:54;;;;;;;8.07;4.38;;;2.00;56.40;;;;;;5098923;27;20126;-76
2023/02/15 05:36:20;;;;;;;9.27;4.20;;;1.90;56.00;;;;;;5111345;28;20075;-75
2023/02/15 05:38:45;;;;;;;9.48;4.43;;;1.90;56.10;;;;;;5112328;28;20035;-75
2023/02/15 05:41:11;;;;;;;7.82;3.88;;;1.90;56.00;;;;;;5112292;28;20028;-75
2023/02/15 05:43:38;;;;;;;9.70;4.72;;;2.00;55.90;;;;;;5112397;28;20027;-75
2023/02/15 05:46:04;;;;;;;8.98;3.92;;;2.00;55.80;;;;;;5112352;28;20067;-76
2023/02/15 05:48:30;;;;;;;8.93;4.50;;;2.00;56.00;;;;;;5112210;28;20024;-76
2023/02/15 05:51:06;;;;;;;15.80;6.22;;;1.90;56.20;;;;;;5112308;28;20028;-76
2023/02/15 05:53:34;;;;;;;14.38;6.13;;;1.90;56.50;;;;;;5112027;28;20024;-76
2023/02/15 05:56:01;;;;;;;16.55;7.00;;;1.80;56.30;;;;;;5112772;28;20031;-75
2023/02/15 05:58:29;;;;;;;26.80;8.32;;;1.90;56.00;;;;;;5112272;28;20027;-75
2023/02/15 06:00:55;;;;;;;25.10;8.85;;;1.80;55.80;;;;;;5112085;28;20114;-75
2023/02/15 06:03:22;;;;;;;17.73;6.68;;;1.80;56.00;;;;;;5111908;28;20043;-75
2023/02/15 06:05:48;;;;;;;17.13;6.80;;;1.80;55.70;;;;;;5111886;28;20108;-75
2023/02/15 06:08:13;;;;;;;16.60;7.32;;;1.90;56.00;;;;;;5111916;28;20027;-75
2023/02/15 06:10:39;;;;;;;16.63;7.50;;;1.90;56.00;;;;;;5111525;28;20035;-76
2023/02/15 06:13:06;;;;;;;19.27;7.93;;;1.80;56.60;;;;;;5112473;28;20028;-78
2023/02/15 06:15:32;;;;;;;27.13;11.50;;;1.80;56.80;;;;;;5112600;28;20106;-75
2023/02/15 06:17:57;;;;;;;24.85;10.13;;;1.80;57.00;;;;;;5113159;28;20020;-75
2023/02/15 06:20:23;;;;;;;20.23;10.32;;;1.70;57.10;;;;;;5116794;28;20020;-74
2023/02/15 06:22:48;;;;;;;17.45;7.78;;;1.70;57.60;;;;;;5117504;28;20080;-74
2023/02/15 06:25:15;;;;;;;19.40;6.95;;;1.60;57.80;;;;;;5112641;28;20030;-74
2023/02/15 06:27:42;;;;;;;14.63;7.45;;;1.60;57.40;;;;;;5113298;28;20020;-75
2023/02/15 06:30:09;;;;;;;14.10;7.63;;;1.60;57.50;;;;;;5112158;28;20460;-75
2023/02/15 06:32:35;;;;;;;24.83;15.15;;;1.70;57.30;;;;;;5111664;28;20028;-75
2023/02/15 06:35:01;;;;;;;24.80;12.63;;;1.70;57.20;;;;;;5113420;28;20028;-77
2023/02/15 06:37:26;;;;;;;20.70;11.40;;;1.70;57.60;;;;;;5111522;28;20047;-76
2023/02/15 06:39:52;;;;;;;16.70;8.77;;;1.70;58.10;;;;;;5113085;28;20020;-74
2023/02/15 06:42:18;;;;;;;13.80;7.90;;;1.60;58.10;;;;;;5111690;28;20023;-75
2023/02/15 06:44:43;;;;;;;12.30;6.38;;;1.60;58.20;;;;;;5112884;28;20023;-78
2023/02/15 06:47:10;;;;;;;18.10;7.38;;;1.60;58.10;;;;;;5111922;28;20139;-74
2023/02/15 06:49:36;;;;;;;13.88;7.28;;;1.60;58.00;;;;;;5115458;28;20368;-75
2023/02/15 06:52:03;;;;;;;14.45;7.60;;;1.50;57.90;;;;;;5116528;28;20019;-76
2023/02/15 06:54:29;;;;;;;13.43;6.35;;;1.50;58.00;;;;;;5115537;28;20023;-75
2023/02/15 06:56:54;;;;;;;9.45;5.85;;;1.60;57.90;;;;;;5115265;28;20031;-76
2023/02/15 06:59:20;;;;;;;12.10;6.43;;;1.60;57.30;;;;;;5116034;28;20027;-75
2023/02/15 07:01:45;;;;;;;10.55;5.60;;;1.60;57.30;;;;;;5116447;28;20038;-75
2023/02/15 07:04:11;;;;;;;13.73;5.63;;;1.60;57.70;;;;;;5115343;28;20024;-75
2023/02/15 07:06:36;;;;;;;11.40;5.93;;;1.60;57.80;;;;;;5115009;28;20027;-75
2023/02/15 07:09:02;;;;;;;16.67;6.82;;;1.60;57.70;;;;;;5115155;28;20042;-76
2023/02/15 07:12:41;;;;;;;17.13;6.85;;;1.70;57.70;;;;;;5116366;28;20112;-76
2023/02/15 07:14:17;;;;;;;15.73;6.85;;;1.70;57.90;;;;;;5116197;28;20031;-75
2023/02/15 07:16:43;;;;;;;28.30;12.57;;;1.80;57.90;;;;;;5114830;28;20099;-75
2023/02/15 07:19:08;;;;;;;20.65;11.43;;;1.90;58.00;;;;;;5114346;28;20152;-75
2023/02/15 07:21:35;;;;;;;27.17;12.90;;;2.00;57.80;;;;;;5114718;28;20471;-76
2023/02/15 07:24:01;;;;;;;35.03;15.52;;;2.00;57.70;;;;;;5115173;28;20027;-74
2023/02/15 07:26:27;;;;;;;31.67;15.18;;;2.20;57.50;;;;;;5115335;28;20023;-76
2023/02/15 07:28:53;;;;;;;29.98;12.68;;;2.20;57.20;;;;;;5114381;28;20032;-76
2023/02/15 07:31:18;;;;;;;23.90;11.20;;;2.30;56.80;;;;;;5116058;28;20024;-76
2023/02/15 07:33:44;;;;;;;29.50;11.10;;;2.40;56.40;;;;;;5114707;28;20471;-78
2023/02/15 07:36:11;;;;;;;17.77;8.63;;;2.40;56.00;;;;;;5114161;28;20074;-76
2023/02/15 07:38:39;;;;;;;19.90;8.57;;;2.50;55.70;;;;;;5114805;28;20076;-78
2023/02/15 07:41:08;;;;;;;26.27;9.75;;;2.50;55.10;;;;;;5114379;28;20031;-79
2023/02/15 07:43:35;;;;;;;22.67;9.27;;;2.60;55.10;;;;;;5114500;28;20055;-78
2023/02/15 07:46:07;;;;;;;23.77;9.02;;;2.70;55.10;;;;;;5114961;28;20027;-78
2023/02/15 07:48:33;;;;;;;18.13;8.32;;;2.80;55.10;;;;;;5115174;28;20032;-79
2023/02/15 07:51:03;;;;;;;21.23;7.47;;;2.90;54.90;;;;;;5117169;28;20023;-80
2023/02/15 07:53:29;;;;;;;9.93;5.40;;;3.00;56.60;;;;;;5117151;28;20050;-80
2023/02/15 07:55:58;;;;;;;11.18;5.43;;;3.20;56.30;;;;;;5116918;28;20059;-80
2023/02/15 07:58:50;;;;;;;10.65;4.95;;;3.40;55.10;;;;;;5119293;28;20106;-75
2023/02/15 08:01:09;;;;;;;22.25;8.30;;;3.60;53.60;;;;;;5115822;28;20023;-74
2023/02/15 08:03:34;;;;;;;16.42;7.70;;;3.90;53.50;;;;;;5116698;28;20095;-74
2023/02/15 08:06:00;;;;;;;12.52;6.57;;;3.90;54.30;;;;;;5116383;28;20099;-78
2023/02/15 08:08:29;;;;;;;25.08;8.52;;;4.10;54.40;;;;;;5115635;28;20038;-80
2023/02/15 08:14:04;;;;;;;17.52;6.88;;;4.40;52.70;;;;;;5116520;28;20034;-78
2023/02/15 08:16:40;;;;;;;31.88;8.35;;;4.50;52.60;;;;;;5115804;28;20164;-77
2023/02/15 08:19:19;;;;;;;27.02;7.43;;;4.70;52.10;;;;;;5115406;27;20115;-78
2023/02/15 08:21:47;;;;;;;21.80;7.00;;;4.80;51.40;;;;;;5114317;28;20031;-76
2023/02/15 08:24:14;;;;;;;33.42;8.00;;;5.00;51.00;;;;;;5114770;28;20103;-74
2023/02/15 08:26:41;;;;;;;20.73;6.95;;;5.20;50.70;;;;;;5114161;28;20031;-78
2023/02/15 08:29:08;;;;;;;14.85;7.05;;;5.40;49.00;;;;;;5114271;28;20063;-78
2023/02/15 08:31:35;;;;;;;21.33;6.50;;;5.40;48.00;;;;;;5114008;28;20027;-79
2023/02/15 08:34:00;;;;;;;16.15;6.18;;;5.50;50.30;;;;;;5109947;28;20035;-74
2023/02/15 08:36:28;;;;;;;10.27;5.82;;;6.00;54.30;;;;;;5125306;27;20043;-74
2023/02/15 08:38:54;;;;;;;11.88;6.95;;;6.40;50.70;;;;;;5115628;27;20031;-77
2023/02/15 08:41:23;;;;;;;15.93;7.35;;;6.60;46.50;;;;;;5116390;27;20053;-78
2023/02/15 08:43:53;;;;;;;13.25;6.82;;;6.60;46.60;;;;;;5115616;27;20024;-75
2023/02/15 08:46:19;;;;;;;15.45;6.32;;;6.50;46.90;;;;;;5134268;27;20439;-76
2023/02/15 08:48:45;;;;;;;14.45;6.82;;;6.50;46.90;;;;;;5115886;27;20038;-77
2023/02/15 08:51:19;;;;;;;13.65;6.47;;;6.60;47.20;;;;;;5134852;27;20097;-76
2023/02/15 08:53:50;;;;;;;12.90;6.60;;;6.60;46.10;;;;;;5115636;27;20095;-77
2023/02/15 08:56:17;;;;;;;12.05;5.82;;;6.70;46.50;;;;;;5115737;27;20080;-76
2023/02/15 08:58:43;;;;;;;9.82;6.07;;;6.90;46.30;;;;;;5115570;27;20113;-78
2023/02/15 09:01:21;;;;;;;16.70;6.40;;;7.10;46.00;;;;;;5134358;27;20055;-76
2023/02/15 09:03:49;;;;;;;10.48;5.70;;;7.30;45.00;;;;;;5115863;27;20084;-73
2023/02/15 09:06:16;;;;;;;17.05;5.28;;;7.40;44.10;;;;;;5116099;27;20015;-74
2023/02/15 09:08:42;;;;;;;12.80;6.07;;;7.60;43.90;;;;;;5115215;27;20023;-79
2023/02/15 09:11:16;;;;;;;13.48;5.90;;;7.70;43.60;;;;;;5133510;27;20035;-75
2023/02/15 09:13:42;;;;;;;15.52;6.07;;;8.00;44.10;;;;;;5133273;27;20023;-74
2023/02/15 09:16:10;;;;;;;12.32;6.03;;;8.10;44.30;;;;;;5115031;27;20019;-75
2023/02/15 09:18:37;;;;;;;20.15;7.05;;;8.30;43.50;;;;;;5115055;27;20396;-74
2023/02/15 09:21:05;;;;;;;12.48;4.97;;;8.50;42.90;;;;;;5114918;27;20026;-74
2023/02/15 09:23:31;;;;;;;14.10;4.53;;;8.70;41.90;;;;;;5133446;27;20480;-74
2023/02/15 09:25:56;;;;;;;13.20;5.53;;;8.80;42.30;;;;;;5133395;27;20019;-74
2023/02/15 09:28:22;;;;;;;16.17;6.03;;;9.00;41.40;;;;;;5114713;27;20024;-74
2023/02/15 09:30:47;;;;;;;13.45;5.82;;;9.20;40.70;;;;;;5114527;27;20038;-74
2023/02/15 09:33:13;;;;;;;27.38;9.80;;;9.40;40.70;;;;;;5132911;27;20027;-74
2023/02/15 09:35:38;;;;;;;42.40;16.15;;;9.70;40.40;;;;;;5109761;27;20039;-76
2023/02/15 09:38:04;;;;;;;48.33;17.08;;;9.90;37.90;;;;;;5115179;27;20475;-75
2023/02/15 09:40:40;;;;;;;34.95;13.85;;;10.00;37.20;;;;;;5115343;27;20142;-74
2023/02/15 09:43:33;;;;;;;31.13;12.57;;;10.20;36.20;;;;;;5115516;27;20027;-74
2023/02/15 09:46:10;;;;;;;44.00;16.83;;;10.40;36.30;;;;;;5115414;27;20032;-74
2023/02/15 09:48:40;;;;;;;33.42;14.40;;;10.70;35.90;;;;;;5133969;27;20035;-75
2023/02/15 09:51:17;;;;;;;30.77;12.02;;;11.00;35.80;;;;;;5133712;27;20019;-76
2023/02/15 09:53:56;;;;;;;32.78;13.75;;;11.20;34.90;;;;;;5115150;27;20051;-76
2023/02/15 09:56:37;;;;;;;24.15;11.00;;;11.50;34.50;;;;;;5115153;27;20027;-76
2023/02/15 09:59:05;;;;;;;29.52;11.05;;;11.70;33.10;;;;;;5115365;28;20045;-77
2023/02/15 10:02:00;;;;;;;22.55;9.30;;;11.90;32.80;;;;;;5114765;28;20023;-76
2023/02/15 10:04:32;;;;;;;17.90;7.88;;;12.20;32.30;;;;;;5133494;28;20019;-76
2023/02/15 10:07:08;;;;;;;19.73;7.80;;;12.60;32.10;;;;;;5114796;28;20152;-76
2023/02/15 10:09:52;;;;;;;22.98;9.95;;;12.80;31.30;;;;;;5114703;28;20035;-77
2023/02/15 10:12:39;;;;;;;21.45;9.23;;;13.10;30.30;;;;;;5115121;28;20026;-76
2023/02/15 10:15:39;;;;;;;17.75;8.07;;;13.40;29.60;;;;;;5115671;28;20034;-75
2023/02/15 10:18:17;;;;;;;12.45;6.32;;;13.70;28.70;;;;;;5133765;27;20024;-76
2023/02/15 10:20:51;;;;;;;17.08;7.20;;;13.90;28.50;;;;;;5133627;28;20016;-75
2023/02/15 10:23:25;;;;;;;17.02;7.10;;;14.20;27.90;;;;;;5135453;27;20023;-77
2023/02/15 10:26:05;;;;;;;13.27;5.78;;;14.40;26.40;;;;;;5119097;27;20030;-74
2023/02/15 10:28:48;;;;;;;8.55;4.30;;;14.60;25.80;;;;;;5118969;27;20027;-75
2023/02/15 10:31:37;;;;;;;11.95;4.78;;;14.80;25.50;;;;;;5137480;27;20106;-77
2023/02/15 10:34:37;;;;;;;12.13;5.75;;;15.00;23.60;;;;;;5137159;27;20027;-75
2023/02/15 10:37:24;;;;;;;17.48;6.55;;;14.90;22.20;;;;;;5137382;27;20364;-75
2023/02/15 10:40:14;;;;;;;13.35;5.30;;;15.00;23.30;;;;;;5137123;27;20031;-75
2023/02/15 10:42:54;;;;;;;14.15;5.35;;;15.10;22.00;;;;;;5132568;27;20023;-75
2023/02/15 10:45:30;;;;;;;10.93;5.00;;;15.20;21.80;;;;;;5118960;27;20108;-75
2023/02/15 10:48:10;;;;;;;10.00;4.28;;;15.40;21.70;;;;;;5137276;27;20031;-75
2023/02/15 10:50:43;;;;;;;9.05;4.13;;;15.30;21.00;;;;;;5118827;27;20056;-76
2023/02/15 10:53:08;;;;;;;9.35;4.25;;;15.60;20.50;;;;;;5119087;27;20025;-76
2023/02/15 10:55:48;;;;;;;13.73;5.25;;;15.80;20.20;;;;;;5137316;27;20051;-78
2023/02/15 10:58:37;;;;;;;14.80;5.32;;;16.10;20.70;;;;;;5137118;27;20025;-77
2023/02/15 11:01:39;;;;;;;9.93;4.30;;;16.40;20.00;;;;;;5123570;27;20114;-75
2023/02/15 11:04:23;;;;;;;8.13;3.55;;;16.50;19.20;;;;;;5136658;27;20023;-76
2023/02/15 11:06:56;;;;;;;10.93;3.95;;;16.70;18.90;;;;;;5117965;27;20379;-74
2023/02/15 11:09:26;;;;;;;6.90;3.08;;;17.00;19.50;;;;;;5117753;27;20034;-75
2023/02/15 11:11:57;;;;;;;11.18;3.22;;;17.30;18.50;;;;;;5136877;27;20077;-77
2023/02/15 11:14:44;;;;;;;5.13;2.40;;;17.50;17.60;;;;;;5118008;27;20118;-77
2023/02/15 11:17:17;;;;;;;6.07;2.42;;;17.70;17.10;;;;;;5136487;27;20110;-78
2023/02/15 11:20:19;;;;;;;7.72;2.67;;;17.80;17.30;;;;;;5118398;27;20019;-78
2023/02/15 11:22:48;;;;;;;13.30;2.97;;;17.70;18.00;;;;;;5136598;27;20023;-80
2023/02/15 11:25:25;;;;;;;5.53;2.42;;;17.80;18.20;;;;;;5118157;27;20467;-78
2023/02/15 11:27:52;;;;;;;6.25;2.53;;;17.80;18.50;;;;;;5117703;27;20037;-77
2023/02/15 11:30:23;;;;;;;7.93;2.75;;;18.20;18.40;;;;;;5118175;27;20506;-75
2023/02/15 11:33:02;;;;;;;6.78;2.40;;;18.50;18.60;;;;;;5136439;27;20417;-77
2023/02/15 11:35:32;;;;;;;6.13;1.95;;;18.70;17.30;;;;;;5116519;27;20035;-75
2023/02/15 11:38:13;;;;;;;7.72;2.38;;;18.80;16.50;;;;;;5117492;27;20126;-77
2023/02/15 11:40:51;;;;;;;6.20;1.88;;;19.10;16.30;;;;;;5136107;27;20066;-77
2023/02/15 11:43:34;;;;;;;6.13;2.35;;;19.30;15.70;;;;;;5117509;27;20035;-77
2023/02/15 11:46:00;;;;;;;4.07;1.65;;;19.40;15.30;;;;;;5130649;27;20024;-78
2023/02/15 11:48:29;;;;;;;3.10;1.95;;;19.20;14.30;;;;;;5135760;27;20494;-76
2023/02/15 11:50:55;;;;;;;4.10;1.95;;;19.10;14.70;;;;;;5135367;27;20375;-76
2023/02/15 11:53:27;;;;;;;3.78;1.63;;;19.00;14.60;;;;;;5135255;27;20023;-77
2023/02/15 11:55:53;;;;;;;4.07;2.03;;;19.20;14.70;;;;;;5135234;27;20148;-77
2023/02/15 11:58:33;;;;;;;3.30;2.17;;;19.10;13.90;;;;;;5135088;27;20118;-76
2023/02/15 12:01:15;;;;;;;2.50;1.95;;;19.30;14.40;;;;;;5117097;27;20019;-76
2023/02/15 12:03:58;;;;;;;4.68;2.00;;;19.50;14.60;;;;;;5116880;27;20027;-77
2023/02/15 12:06:30;;;;;;;3.65;1.80;;;19.90;14.80;;;;;;5116971;27;20069;-79
2023/02/15 12:09:10;;;;;;;4.15;2.15;;;20.20;14.40;;;;;;5117112;27;20059;-77
2023/02/15 12:11:39;;;;;;;3.50;2.25;;;20.40;13.80;;;;;;5117120;27;20080;-78
2023/02/15 12:14:09;;;;;;;3.90;2.00;;;20.60;13.80;;;;;;5135735;27;20019;-78
2023/02/15 12:16:54;;;;;;;4.25;2.05;;;20.90;13.00;;;;;;5117327;27;20027;-79
2023/02/15 12:19:43;;;;;;;3.40;1.90;;;20.90;12.00;;;;;;5117169;27;20024;-76
2023/02/15 12:22:33;;;;;;;3.25;1.63;;;21.00;11.90;;;;;;5135436;27;20060;-76
2023/02/15 12:25:02;;;;;;;4.95;1.77;;;21.00;11.20;;;;;;5122693;27;20039;-76
2023/02/15 12:27:34;;;;;;;4.57;1.55;;;21.10;10.80;;;;;;5116647;27;20027;-75
2023/02/15 12:30:50;;;;;;;3.92;1.13;;;21.40;11.10;;;;;;5135171;27;20070;-76
2023/02/15 12:33:35;;;;;;;2.15;1.50;;;21.40;9.20;;;;;;5031802;28;20033;-77
2023/02/15 12:36:30;;;;;;;3.03;1.52;;;21.20;9.30;;;;;;5127009;27;20035;-77
2023/02/15 12:39:07;;;;;;;2.83;2.13;;;21.30;9.60;;;;;;5135114;27;20195;-76
2023/02/15 12:41:34;;;;;;;3.55;1.60;;;21.00;10.20;;;;;;5135141;27;20027;-74
2023/02/15 12:44:06;;;;;;;4.28;1.83;;;20.90;9.80;;;;;;5116253;27;20068;-77
2023/02/15 12:46:32;;;;;;;2.58;1.10;;;20.60;9.50;;;;;;5115761;27;20016;-80
2023/02/15 12:49:19;;;;;;;2.58;1.30;;;20.60;9.50;;;;;;5130385;27;20102;-79
2023/02/15 12:51:51;;;;;;;3.63;1.88;;;21.00;8.90;;;;;;5116106;27;20057;-79
2023/02/15 12:54:41;;;;;;;3.28;1.92;;;20.90;10.70;;;;;;5116196;27;20077;-74
2023/02/15 12:57:31;;;;;;;4.63;1.73;;;21.30;11.50;;;;;;5134528;27;20027;-75
2023/02/15 13:00:01;;;;;;;5.15;1.60;;;21.50;10.90;;;;;;5116368;27;20023;-75
2023/02/15 13:02:48;;;;;;;5.47;1.80;;;22.00;9.90;;;;;;5134436;27;20031;-75
2023/02/15 13:05:37;;;;;;;4.82;1.42;;;22.40;9.90;;;;;;5115966;27;20472;-75
2023/02/15 13:08:16;;;;;;;7.13;1.83;;;22.50;8.90;;;;;;5134174;27;20026;-76
2023/02/15 13:11:10;;;;;;;14.27;2.10;;;22.70;8.90;;;;;;5115647;27;20031;-78
2023/02/15 13:13:54;;;;;;;4.75;1.42;;;22.70;9.40;;;;;;5115829;27;20054;-76
2023/02/15 13:16:32;;;;;;;2.75;1.45;;;23.10;9.00;;;;;;5134282;27;20023;-75
2023/02/15 13:19:06;;;;;;;3.67;1.60;;;23.40;8.70;;;;;;5134368;27;20029;-77
2023/02/15 13:21:39;;;;;;;3.55;1.50;;;23.30;8.40;;;;;;5134202;27;20488;-75
2023/02/15 13:24:20;;;;;;;4.25;1.73;;;23.60;8.40;;;;;;5115749;27;20019;-75
2023/02/15 13:26:47;;;;;;;2.70;1.50;;;23.60;7.70;;;;;;5115623;27;20131;-76
2023/02/15 13:29:31;;;;;;;2.60;1.40;;;23.40;7.70;;;;;;5133720;27;20058;-77
2023/02/15 13:31:59;;;;;;;8.80;1.27;;;23.60;7.50;;;;;;5115720;27;20087;-76
2023/02/15 13:34:31;;;;;;;3.45;1.60;;;24.10;7.40;;;;;;5115504;27;20027;-75
2023/02/15 13:37:11;;;;;;;2.33;1.40;;;24.30;6.60;;;;;;5133819;27;20077;-75